sensor_id;sensor_type;location;lat;lon;timestamp;pressure;altitude;pressure_sealevel;temperature;humidity
52777;BME280;38656;54.260;20.822;2024-03-17T00:00:38;100793.06;;;4.19;100.00
52777;BME280;38656;54.260;20.822;2024-03-17T00:03:08;100785.16;;;4.01;100.00
52777;BME280;38656;54.260;20.822;2024-03-17T00:05:35;100789.84;;;3.95;100.00
52777;BME280;38656;54.260;20.822;2024-03-17T00:08:02;100785.00;;;4.23;100.00
52777;BME280;38656;54.260;20.822;2024-03-17T00:10:31;100782.63;;;4.00;100.00
52777;BME280;38656;54.260;20.822;2024-03-17T00:12:57;100780.84;;;4.00;100.00
52777;BME280;38656;54.260;20.822;2024-03-17T00:15:24;100785.03;;;4.04;100.00
52777;BME280;38656;54.260;20.822;2024-03-17T00:17:50;100775.00;;;3.95;100.00
52777;BME280;38656;54.260;20.822;2024-03-17T00:20:16;100788.84;;;3.97;100.00
52777;BME280;38656;54.260;20.822;2024-03-17T00:22:48;100773.44;;;3.91;100.00
52777;BME280;38656;54.260;20.822;2024-03-17T00:25:15;100779.34;;;4.14;100.00
52777;BME280;38656;54.260;20.822;2024-03-17T00:27:41;100777.84;;;3.90;100.00
52777;BME280;38656;54.260;20.822;2024-03-17T00:30:10;100769.75;;;4.14;100.00
52777;BME280;38656;54.260;20.822;2024-03-17T00:32:39;100769.94;;;3.92;100.00
52777;BME280;38656;54.260;20.822;2024-03-17T00:35:07;100770.09;;;3.89;100.00
52777;BME280;38656;54.260;20.822;2024-03-17T00:37:34;100776.72;;;3.96;100.00
52777;BME280;38656;54.260;20.822;2024-03-17T00:40:04;100768.91;;;4.14;100.00
52777;BME280;38656;54.260;20.822;2024-03-17T00:42:32;100772.47;;;4.30;100.00
52777;BME280;38656;54.260;20.822;2024-03-17T00:44:59;100774.94;;;3.97;100.00
52777;BME280;38656;54.260;20.822;2024-03-17T00:47:29;100774.13;;;4.14;100.00
52777;BME280;38656;54.260;20.822;2024-03-17T00:49:55;100779.94;;;4.01;100.00
52777;BME280;38656;54.260;20.822;2024-03-17T00:52:21;100774.72;;;4.01;100.00
52777;BME280;38656;54.260;20.822;2024-03-17T00:54:48;100771.19;;;4.02;100.00
52777;BME280;38656;54.260;20.822;2024-03-17T00:57:14;100771.59;;;4.12;100.00
52777;BME280;38656;54.260;20.822;2024-03-17T00:59:42;100775.22;;;4.10;100.00
52777;BME280;38656;54.260;20.822;2024-03-17T01:02:13;100773.06;;;4.18;100.00
52777;BME280;38656;54.260;20.822;2024-03-17T01:04:40;100776.63;;;4.34;100.00
52777;BME280;38656;54.260;20.822;2024-03-17T01:07:07;100770.16;;;4.24;100.00
52777;BME280;38656;54.260;20.822;2024-03-17T01:09:33;100765.97;;;4.02;100.00
52777;BME280;38656;54.260;20.822;2024-03-17T01:11:59;100766.91;;;4.19;100.00
52777;BME280;38656;54.260;20.822;2024-03-17T01:14:26;100772.91;;;4.21;100.00
52777;BME280;38656;54.260;20.822;2024-03-17T01:16:52;100766.66;;;4.06;100.00
52777;BME280;38656;54.260;20.822;2024-03-17T01:19:18;100762.59;;;4.18;100.00
52777;BME280;38656;54.260;20.822;2024-03-17T01:21:44;100758.03;;;4.40;100.00
52777;BME280;38656;54.260;20.822;2024-03-17T01:24:11;100759.09;;;4.19;100.00
52777;BME280;38656;54.260;20.822;2024-03-17T01:26:37;100753.38;;;4.11;100.00
52777;BME280;38656;54.260;20.822;2024-03-17T01:29:03;100764.91;;;4.24;100.00
52777;BME280;38656;54.260;20.822;2024-03-17T01:31:29;100757.56;;;4.32;100.00
52777;BME280;38656;54.260;20.822;2024-03-17T01:33:55;100756.84;;;4.29;100.00
52777;BME280;38656;54.260;20.822;2024-03-17T01:36:21;100752.72;;;4.42;100.00
52777;BME280;38656;54.260;20.822;2024-03-17T01:38:48;100742.31;;;4.23;100.00
52777;BME280;38656;54.260;20.822;2024-03-17T01:41:14;100746.47;;;4.27;100.00
52777;BME280;38656;54.260;20.822;2024-03-17T01:43:40;100739.56;;;4.43;100.00
52777;BME280;38656;54.260;20.822;2024-03-17T01:46:11;100740.19;;;4.31;100.00
52777;BME280;38656;54.260;20.822;2024-03-17T01:48:39;100745.19;;;4.53;100.00
52777;BME280;38656;54.260;20.822;2024-03-17T01:51:06;100733.41;;;4.62;100.00
52777;BME280;38656;54.260;20.822;2024-03-17T01:53:35;100734.94;;;4.31;100.00
52777;BME280;38656;54.260;20.822;2024-03-17T01:56:02;100735.09;;;4.28;100.00
52777;BME280;38656;54.260;20.822;2024-03-17T01:58:30;100731.88;;;4.58;100.00
52777;BME280;38656;54.260;20.822;2024-03-17T02:00:57;100740.56;;;4.41;100.00
52777;BME280;38656;54.260;20.822;2024-03-17T02:03:23;100732.34;;;4.49;100.00
52777;BME280;38656;54.260;20.822;2024-03-17T02:05:49;100730.66;;;4.48;100.00
52777;BME280;38656;54.260;20.822;2024-03-17T02:08:16;100728.03;;;4.30;100.00
52777;BME280;38656;54.260;20.822;2024-03-17T02:10:42;100725.34;;;4.49;100.00
52777;BME280;38656;54.260;20.822;2024-03-17T02:13:09;100732.47;;;4.46;100.00
52777;BME280;38656;54.260;20.822;2024-03-17T02:15:35;100720.44;;;4.43;100.00
52777;BME280;38656;54.260;20.822;2024-03-17T02:18:01;100720.97;;;4.32;100.00
52777;BME280;38656;54.260;20.822;2024-03-17T02:20:27;100724.44;;;4.50;100.00
52777;BME280;38656;54.260;20.822;2024-03-17T02:23:12;100725.34;;;4.32;100.00
52777;BME280;38656;54.260;20.822;2024-03-17T02:25:38;100722.34;;;4.57;100.00
52777;BME280;38656;54.260;20.822;2024-03-17T02:28:05;100720.50;;;4.41;100.00
52777;BME280;38656;54.260;20.822;2024-03-17T02:30:31;100722.81;;;4.48;100.00
52777;BME280;38656;54.260;20.822;2024-03-17T02:32:58;100721.25;;;4.43;100.00
52777;BME280;38656;54.260;20.822;2024-03-17T02:35:24;100729.56;;;4.34;100.00
52777;BME280;38656;54.260;20.822;2024-03-17T02:37:50;100724.50;;;4.31;100.00
52777;BME280;38656;54.260;20.822;2024-03-17T02:40:17;100726.34;;;4.29;100.00
52777;BME280;38656;54.260;20.822;2024-03-17T02:42:47;100730.09;;;4.41;100.00
52777;BME280;38656;54.260;20.822;2024-03-17T02:45:13;100731.56;;;4.29;100.00
52777;BME280;38656;54.260;20.822;2024-03-17T02:47:40;100732.47;;;4.46;100.00
52777;BME280;38656;54.260;20.822;2024-03-17T02:50:07;100728.19;;;4.45;100.00
52777;BME280;38656;54.260;20.822;2024-03-17T02:52:34;100731.78;;;4.42;100.00
52777;BME280;38656;54.260;20.822;2024-03-17T02:55:01;100727.56;;;4.39;100.00
52777;BME280;38656;54.260;20.822;2024-03-17T02:57:28;100727.72;;;4.36;100.00
52777;BME280;38656;54.260;20.822;2024-03-17T02:59:58;100729.94;;;4.44;100.00
52777;BME280;38656;54.260;20.822;2024-03-17T03:02:25;100721.59;;;4.55;100.00
52777;BME280;38656;54.260;20.822;2024-03-17T03:04:51;100726.03;;;4.35;100.00
52777;BME280;38656;54.260;20.822;2024-03-17T03:07:17;100710.72;;;4.45;100.00
52777;BME280;38656;54.260;20.822;2024-03-17T03:09:44;100715.94;;;4.45;100.00
52777;BME280;38656;54.260;20.822;2024-03-17T03:12:10;100712.94;;;4.53;100.00
52777;BME280;38656;54.260;20.822;2024-03-17T03:14:36;100725.09;;;4.19;100.00
52777;BME280;38656;54.260;20.822;2024-03-17T03:17:02;100722.47;;;4.36;100.00
52777;BME280;38656;54.260;20.822;2024-03-17T03:19:29;100721.25;;;4.43;100.00
52777;BME280;38656;54.260;20.822;2024-03-17T03:21:56;100719.56;;;4.42;100.00
52777;BME280;38656;54.260;20.822;2024-03-17T03:24:22;100722.66;;;4.51;100.00
52777;BME280;38656;54.260;20.822;2024-03-17T03:26:51;100725.34;;;4.32;100.00
52777;BME280;38656;54.260;20.822;2024-03-17T03:29:17;100723.25;;;4.56;100.00
52777;BME280;38656;54.260;20.822;2024-03-17T03:31:43;100732.47;;;4.46;100.00
52777;BME280;38656;54.260;20.822;2024-03-17T03:34:09;100728.47;;;4.21;100.00
52777;BME280;38656;54.260;20.822;2024-03-17T03:36:37;100729.56;;;4.34;100.00
52777;BME280;38656;54.260;20.822;2024-03-17T03:39:04;100720.34;;;4.27;100.00
52777;BME280;38656;54.260;20.822;2024-03-17T03:41:31;100731.69;;;4.08;100.00
52777;BME280;38656;54.260;20.822;2024-03-17T03:44:01;100743.38;;;4.01;100.00
52777;BME280;38656;54.260;20.822;2024-03-17T03:46:27;100721.28;;;4.26;100.00
52777;BME280;38656;54.260;20.822;2024-03-17T03:48:53;100732.75;;;4.04;100.00
52777;BME280;38656;54.260;20.822;2024-03-17T03:51:19;100717.56;;;4.13;100.00
52777;BME280;38656;54.260;20.822;2024-03-17T03:53:45;100716.94;;;4.42;100.00
52777;BME280;38656;54.260;20.822;2024-03-17T03:56:12;100714.31;;;4.07;100.00
52777;BME280;38656;54.260;20.822;2024-03-17T03:58:40;100710.03;;;4.06;100.00
52777;BME280;38656;54.260;20.822;2024-03-17T04:01:06;100714.78;;;3.98;100.00
52777;BME280;38656;54.260;20.822;2024-03-17T04:03:36;100717.88;;;4.24;100.00
52777;BME280;38656;54.260;20.822;2024-03-17T04:06:11;100727.69;;;4.01;100.00
52777;BME280;38656;54.260;20.822;2024-03-17T04:08:39;100724.78;;;4.07;100.00
52777;BME280;38656;54.260;20.822;2024-03-17T04:11:09;100718.34;;;4.15;100.00
52777;BME280;38656;54.260;20.822;2024-03-17T04:13:37;100724.81;;;4.25;100.00
52777;BME280;38656;54.260;20.822;2024-03-17T04:16:06;100722.25;;;4.23;100.00
52777;BME280;38656;54.260;20.822;2024-03-17T04:18:33;100725.63;;;4.25;100.00
52777;BME280;38656;54.260;20.822;2024-03-17T04:21:05;100721.84;;;4.14;100.00
52777;BME280;38656;54.260;20.822;2024-03-17T04:23:32;100729.91;;;4.09;100.00
52777;BME280;38656;54.260;20.822;2024-03-17T04:25:59;100733.84;;;4.18;100.00
52777;BME280;38656;54.260;20.822;2024-03-17T04:28:26;100735.88;;;4.30;100.00
52777;BME280;38656;54.260;20.822;2024-03-17T04:30:52;100742.75;;;4.14;100.00
52777;BME280;38656;54.260;20.822;2024-03-17T04:33:18;100739.25;;;4.15;100.00
52777;BME280;38656;54.260;20.822;2024-03-17T04:35:44;100746.28;;;3.95;100.00
52777;BME280;38656;54.260;20.822;2024-03-17T04:38:11;100748.44;;;4.04;100.00
52777;BME280;38656;54.260;20.822;2024-03-17T04:40:41;100744.72;;;3.91;100.00
52777;BME280;38656;54.260;20.822;2024-03-17T04:43:07;100747.53;;;4.05;100.00
52777;BME280;38656;54.260;20.822;2024-03-17T04:45:34;100755.66;;;3.99;100.00
52777;BME280;38656;54.260;20.822;2024-03-17T04:48:00;100760.75;;;3.83;100.00
52777;BME280;38656;54.260;20.822;2024-03-17T04:50:26;100763.72;;;3.76;100.00
52777;BME280;38656;54.260;20.822;2024-03-17T04:52:58;100763.94;;;3.90;100.00
52777;BME280;38656;54.260;20.822;2024-03-17T04:55:24;100755.13;;;3.74;100.00
52777;BME280;38656;54.260;20.822;2024-03-17T04:57:51;100752.03;;;3.65;100.00
52777;BME280;38656;54.260;20.822;2024-03-17T05:00:17;100761.78;;;3.62;100.00
52777;BME280;38656;54.260;20.822;2024-03-17T05:02:45;100756.81;;;3.36;100.00
52777;BME280;38656;54.260;20.822;2024-03-17T05:05:11;100755.63;;;3.44;100.00
52777;BME280;38656;54.260;20.822;2024-03-17T05:07:37;100759.72;;;3.30;100.00
52777;BME280;38656;54.260;20.822;2024-03-17T05:10:04;100755.25;;;3.32;100.00
52777;BME280;38656;54.260;20.822;2024-03-17T05:12:31;100761.00;;;3.41;100.00
52777;BME280;38656;54.260;20.822;2024-03-17T05:14:58;100768.53;;;3.47;100.00
52777;BME280;38656;54.260;20.822;2024-03-17T05:17:24;100764.66;;;3.36;100.00
52777;BME280;38656;54.260;20.822;2024-03-17T05:19:50;100766.41;;;3.55;100.00
52777;BME280;38656;54.260;20.822;2024-03-17T05:22:16;100764.84;;;3.32;100.00
52777;BME280;38656;54.260;20.822;2024-03-17T05:24:42;100766.06;;;3.44;100.00
52777;BME280;38656;54.260;20.822;2024-03-17T05:27:08;100757.97;;;3.50;100.00
52777;BME280;38656;54.260;20.822;2024-03-17T05:29:34;100755.28;;;3.70;100.00
52777;BME280;38656;54.260;20.822;2024-03-17T05:32:04;100755.00;;;3.77;100.00
52777;BME280;38656;54.260;20.822;2024-03-17T05:34:30;100760.00;;;3.62;100.00
52777;BME280;38656;54.260;20.822;2024-03-17T05:36:56;100762.75;;;3.78;100.00
52777;BME280;38656;54.260;20.822;2024-03-17T05:39:22;100757.97;;;3.69;100.00
52777;BME280;38656;54.260;20.822;2024-03-17T05:41:48;100757.75;;;3.74;100.00
52777;BME280;38656;54.260;20.822;2024-03-17T05:44:15;100756.53;;;3.81;100.00
52777;BME280;38656;54.260;20.822;2024-03-17T05:46:42;100756.66;;;3.78;100.00
52777;BME280;38656;54.260;20.822;2024-03-17T05:49:08;100750.47;;;3.80;100.00
52777;BME280;38656;54.260;20.822;2024-03-17T05:51:34;100757.84;;;3.89;100.00
52777;BME280;38656;54.260;20.822;2024-03-17T05:54:00;100763.72;;;3.95;100.00
52777;BME280;38656;54.260;20.822;2024-03-17T05:56:26;100765.06;;;3.84;100.00
52777;BME280;38656;54.260;20.822;2024-03-17T05:58:53;100761.19;;;3.93;100.00
52777;BME280;38656;54.260;20.822;2024-03-17T06:01:19;100766.22;;;4.15;100.00
52777;BME280;38656;54.260;20.822;2024-03-17T06:03:45;100772.41;;;3.95;100.00
52777;BME280;38656;54.260;20.822;2024-03-17T06:06:11;100774.63;;;4.22;100.00
52777;BME280;38656;54.260;20.822;2024-03-17T06:08:38;100772.75;;;4.06;100.00
52777;BME280;38656;54.260;20.822;2024-03-17T06:11:05;100765.09;;;4.02;100.00
52777;BME280;38656;54.260;20.822;2024-03-17T06:13:31;100778.25;;;4.00;100.00
52777;BME280;38656;54.260;20.822;2024-03-17T06:15:57;100780.28;;;4.13;100.00
52777;BME280;38656;54.260;20.822;2024-03-17T06:18:27;100777.00;;;3.90;100.00
52777;BME280;38656;54.260;20.822;2024-03-17T06:20:53;100772.88;;;4.03;100.00
52777;BME280;38656;54.260;20.822;2024-03-17T06:23:19;100779.78;;;4.04;100.00
52777;BME280;38656;54.260;20.822;2024-03-17T06:25:47;100788.69;;;4.00;100.00
52777;BME280;38656;54.260;20.822;2024-03-17T06:28:15;100788.28;;;4.10;100.00
52777;BME280;38656;54.260;20.822;2024-03-17T06:30:56;100793.22;;;3.97;100.00
52777;BME280;38656;54.260;20.822;2024-03-17T06:33:25;100806.75;;;4.05;100.00
52777;BME280;38656;54.260;20.822;2024-03-17T06:35:52;100800.91;;;4.00;100.00
52777;BME280;38656;54.260;20.822;2024-03-17T06:38:18;100801.84;;;3.80;100.00
52777;BME280;38656;54.260;20.822;2024-03-17T06:40:51;100799.63;;;4.08;100.00
52777;BME280;38656;54.260;20.822;2024-03-17T06:43:18;100803.81;;;4.13;100.00
52777;BME280;38656;54.260;20.822;2024-03-17T06:45:57;100801.00;;;3.98;100.00
52777;BME280;38656;54.260;20.822;2024-03-17T06:48:24;100804.19;;;4.22;100.00
52777;BME280;38656;54.260;20.822;2024-03-17T06:50:52;100797.41;;;4.18;100.00
52777;BME280;38656;54.260;20.822;2024-03-17T06:53:20;100802.63;;;4.37;100.00
52777;BME280;38656;54.260;20.822;2024-03-17T06:55:58;100802.53;;;4.02;100.00
52777;BME280;38656;54.260;20.822;2024-03-17T06:58:26;100802.50;;;4.21;100.00
52777;BME280;38656;54.260;20.822;2024-03-17T07:01:00;100797.56;;;4.15;100.00
52777;BME280;38656;54.260;20.822;2024-03-17T07:03:28;100790.59;;;4.16;100.00
52777;BME280;38656;54.260;20.822;2024-03-17T07:05:57;100801.50;;;4.24;100.00
52777;BME280;38656;54.260;20.822;2024-03-17T07:08:24;100808.06;;;4.33;100.00
52777;BME280;38656;54.260;20.822;2024-03-17T07:11:01;100811.81;;;4.27;100.00
52777;BME280;38656;54.260;20.822;2024-03-17T07:13:30;100810.97;;;4.27;100.00
52777;BME280;38656;54.260;20.822;2024-03-17T07:15:56;100810.25;;;4.23;100.00
52777;BME280;38656;54.260;20.822;2024-03-17T07:18:24;100812.78;;;4.43;100.00
52777;BME280;38656;54.260;20.822;2024-03-17T07:20:50;100808.00;;;4.34;100.00
52777;BME280;38656;54.260;20.822;2024-03-17T07:23:16;100810.78;;;4.66;100.00
52777;BME280;38656;54.260;20.822;2024-03-17T07:25:50;100813.66;;;4.25;100.00
52777;BME280;38656;54.260;20.822;2024-03-17T07:28:16;100822.03;;;4.14;100.00
52777;BME280;38656;54.260;20.822;2024-03-17T07:30:50;100817.34;;;4.02;100.00
52777;BME280;38656;54.260;20.822;2024-03-17T07:33:17;100823.53;;;4.37;100.00
52777;BME280;38656;54.260;20.822;2024-03-17T07:35:53;100816.13;;;4.28;100.00
52777;BME280;38656;54.260;20.822;2024-03-17T07:38:20;100823.41;;;4.21;100.00
52777;BME280;38656;54.260;20.822;2024-03-17T07:40:59;100828.50;;;4.61;100.00
52777;BME280;38656;54.260;20.822;2024-03-17T07:43:26;100824.78;;;4.65;100.00
52777;BME280;38656;54.260;20.822;2024-03-17T07:48:34;100836.13;;;5.34;100.00
52777;BME280;38656;54.260;20.822;2024-03-17T07:51:02;100830.50;;;6.39;100.00
52777;BME280;38656;54.260;20.822;2024-03-17T07:53:33;100839.88;;;4.95;100.00
52777;BME280;38656;54.260;20.822;2024-03-17T07:56:07;100835.84;;;5.23;100.00
52777;BME280;38656;54.260;20.822;2024-03-17T07:58:36;100838.47;;;4.53;100.00
52777;BME280;38656;54.260;20.822;2024-03-17T08:01:05;100848.63;;;4.59;100.00
52777;BME280;38656;54.260;20.822;2024-03-17T08:03:33;100831.63;;;4.68;100.00
52777;BME280;38656;54.260;20.822;2024-03-17T08:06:01;100847.97;;;4.36;100.00
52777;BME280;38656;54.260;20.822;2024-03-17T08:08:28;100841.88;;;4.55;100.00
52777;BME280;38656;54.260;20.822;2024-03-17T08:10:54;100859.09;;;4.59;100.00
52777;BME280;38656;54.260;20.822;2024-03-17T08:13:21;100845.03;;;4.25;100.00
52777;BME280;38656;54.260;20.822;2024-03-17T08:16:02;100868.50;;;4.07;100.00
52777;BME280;38656;54.260;20.822;2024-03-17T08:18:29;100869.13;;;4.68;100.00
52777;BME280;38656;54.260;20.822;2024-03-17T08:20:55;100880.66;;;4.99;100.00
52777;BME280;38656;54.260;20.822;2024-03-17T08:23:22;100880.38;;;4.88;100.00
52777;BME280;38656;54.260;20.822;2024-03-17T08:25:56;100885.91;;;5.17;100.00
52777;BME280;38656;54.260;20.822;2024-03-17T08:28:24;100885.44;;;4.91;100.00
52777;BME280;38656;54.260;20.822;2024-03-17T08:30:55;100899.41;;;4.17;100.00
52777;BME280;38656;54.260;20.822;2024-03-17T08:33:21;100897.84;;;4.32;100.00
52777;BME280;38656;54.260;20.822;2024-03-17T08:38:28;100904.78;;;4.14;100.00
52777;BME280;38656;54.260;20.822;2024-03-17T08:40:56;100908.34;;;4.13;100.00
52777;BME280;38656;54.260;20.822;2024-03-17T08:43:23;100911.38;;;4.59;100.00
52777;BME280;38656;54.260;20.822;2024-03-17T08:46:08;100918.06;;;4.84;100.00
52777;BME280;38656;54.260;20.822;2024-03-17T08:48:37;100918.19;;;4.63;100.00
52777;BME280;38656;54.260;20.822;2024-03-17T08:51:05;100918.38;;;4.77;100.00
52777;BME280;38656;54.260;20.822;2024-03-17T08:53:32;100927.88;;;4.78;100.00
52777;BME280;38656;54.260;20.822;2024-03-17T08:55:59;100937.28;;;4.83;100.00
52777;BME280;38656;54.260;20.822;2024-03-17T08:58:26;100941.03;;;4.59;100.00
52777;BME280;38656;54.260;20.822;2024-03-17T09:00:52;100936.13;;;4.71;100.00
52777;BME280;38656;54.260;20.822;2024-03-17T09:03:19;100952.91;;;4.48;100.00
52777;BME280;38656;54.260;20.822;2024-03-17T09:05:47;100946.47;;;4.55;100.00
52777;BME280;38656;54.260;20.822;2024-03-17T09:08:18;100949.25;;;5.06;100.00
52777;BME280;38656;54.260;20.822;2024-03-17T09:10:47;100956.56;;;4.43;100.00
52777;BME280;38656;54.260;20.822;2024-03-17T09:13:15;100961.88;;;4.61;100.00
52777;BME280;38656;54.260;20.822;2024-03-17T09:15:55;100959.47;;;4.37;100.00
52777;BME280;38656;54.260;20.822;2024-03-17T09:18:23;100964.97;;;4.69;100.00
52777;BME280;38656;54.260;20.822;2024-03-17T09:23:30;100966.63;;;3.94;100.00
52777;BME280;38656;54.260;20.822;2024-03-17T09:26:03;100967.03;;;4.43;100.00
52777;BME280;38656;54.260;20.822;2024-03-17T09:28:31;100959.66;;;5.07;100.00
52777;BME280;38656;54.260;20.822;2024-03-17T09:30:58;100963.34;;;5.03;100.00
52777;BME280;38656;54.260;20.822;2024-03-17T09:33:27;100968.16;;;4.57;100.00
52777;BME280;38656;54.260;20.822;2024-03-17T09:36:04;100972.06;;;4.85;100.00
52777;BME280;38656;54.260;20.822;2024-03-17T09:38:34;100977.22;;;5.23;100.00
52777;BME280;38656;54.260;20.822;2024-03-17T09:41:02;100978.53;;;4.77;100.00
52777;BME280;38656;54.260;20.822;2024-03-17T09:43:29;100978.88;;;6.11;100.00
52777;BME280;38656;54.260;20.822;2024-03-17T09:45:57;100995.75;;;5.01;100.00
52777;BME280;38656;54.260;20.822;2024-03-17T09:48:25;100987.97;;;5.87;100.00
52777;BME280;38656;54.260;20.822;2024-03-17T09:50:58;100985.53;;;5.83;100.00
52777;BME280;38656;54.260;20.822;2024-03-17T09:53:28;100975.16;;;7.11;100.00
52777;BME280;38656;54.260;20.822;2024-03-17T09:56:13;100987.16;;;8.48;100.00
52777;BME280;38656;54.260;20.822;2024-03-17T09:58:42;100999.13;;;6.41;100.00
52777;BME280;38656;54.260;20.822;2024-03-17T10:01:09;101000.56;;;6.31;100.00
52777;BME280;38656;54.260;20.822;2024-03-17T10:06:25;101006.19;;;5.55;100.00
52777;BME280;38656;54.260;20.822;2024-03-17T10:08:56;101009.16;;;6.82;100.00
52777;BME280;38656;54.260;20.822;2024-03-17T10:11:34;101014.38;;;7.89;100.00
52777;BME280;38656;54.260;20.822;2024-03-17T10:14:02;101012.63;;;9.03;100.00
52777;BME280;38656;54.260;20.822;2024-03-17T10:16:30;101026.03;;;7.24;100.00
52777;BME280;38656;54.260;20.822;2024-03-17T10:21:37;101028.94;;;5.00;100.00
52777;BME280;38656;54.260;20.822;2024-03-17T10:24:11;101030.06;;;5.31;100.00
52777;BME280;38656;54.260;20.822;2024-03-17T10:26:46;101030.59;;;5.20;100.00
52777;BME280;38656;54.260;20.822;2024-03-17T10:29:33;101042.00;;;4.62;100.00
52777;BME280;38656;54.260;20.822;2024-03-17T10:32:15;101033.44;;;4.39;100.00
52777;BME280;38656;54.260;20.822;2024-03-17T10:34:44;101034.53;;;5.29;100.00
52777;BME280;38656;54.260;20.822;2024-03-17T10:37:19;101041.44;;;5.12;100.00
52777;BME280;38656;54.260;20.822;2024-03-17T10:39:51;101030.94;;;8.06;100.00
52777;BME280;38656;54.260;20.822;2024-03-17T10:42:25;101035.94;;;7.19;100.00
52777;BME280;38656;54.260;20.822;2024-03-17T10:44:54;101046.72;;;4.74;100.00
52777;BME280;38656;54.260;20.822;2024-03-17T10:47:26;101053.19;;;5.93;100.00
52777;BME280;38656;54.260;20.822;2024-03-17T10:49:54;101041.16;;;7.51;100.00
52777;BME280;38656;54.260;20.822;2024-03-17T10:52:22;101047.16;;;6.75;100.00
52777;BME280;38656;54.260;20.822;2024-03-17T10:54:53;101044.19;;;7.59;100.00
52777;BME280;38656;54.260;20.822;2024-03-17T10:59:48;101045.69;;;9.08;100.00
52777;BME280;38656;54.260;20.822;2024-03-17T11:02:25;101075.75;;;6.64;100.00
52777;BME280;38656;54.260;20.822;2024-03-17T11:04:57;101082.63;;;4.31;100.00
52777;BME280;38656;54.260;20.822;2024-03-17T11:07:25;101082.75;;;4.68;100.00
52777;BME280;38656;54.260;20.822;2024-03-17T11:09:54;101086.06;;;5.46;100.00
52777;BME280;38656;54.260;20.822;2024-03-17T11:17:53;101076.56;;;6.48;100.00
52777;BME280;38656;54.260;20.822;2024-03-17T11:20:25;101078.22;;;6.33;100.00
52777;BME280;38656;54.260;20.822;2024-03-17T11:22:56;101091.91;;;6.23;100.00
52777;BME280;38656;54.260;20.822;2024-03-17T11:28:03;101095.56;;;3.72;100.00
52777;BME280;38656;54.260;20.822;2024-03-17T11:39:04;101089.25;;;6.89;100.00
52777;BME280;38656;54.260;20.822;2024-03-17T11:41:49;101089.06;;;5.38;100.00
52777;BME280;38656;54.260;20.822;2024-03-17T11:47:02;101094.34;;;5.56;100.00
52777;BME280;38656;54.260;20.822;2024-03-17T11:49:37;101097.28;;;5.67;100.00
52777;BME280;38656;54.260;20.822;2024-03-17T11:52:14;101086.78;;;5.49;100.00
52777;BME280;38656;54.260;20.822;2024-03-17T11:54:43;101086.41;;;5.21;100.00
52777;BME280;38656;54.260;20.822;2024-03-17T11:57:11;101083.38;;;4.54;100.00
52777;BME280;38656;54.260;20.822;2024-03-17T11:59:39;101095.31;;;4.78;100.00
52777;BME280;38656;54.260;20.822;2024-03-17T12:02:19;101089.66;;;5.26;100.00
52777;BME280;38656;54.260;20.822;2024-03-17T12:04:46;101087.09;;;4.48;100.00
52777;BME280;38656;54.260;20.822;2024-03-17T12:07:14;101080.56;;;4.77;100.00
52777;BME280;38656;54.260;20.822;2024-03-17T12:09:47;101087.13;;;4.86;100.00
52777;BME280;38656;54.260;20.822;2024-03-17T12:12:26;101086.19;;;5.62;100.00
52777;BME280;38656;54.260;20.822;2024-03-17T12:15:03;101071.81;;;6.39;100.00
52777;BME280;38656;54.260;20.822;2024-03-17T12:17:42;101091.78;;;6.08;100.00
52777;BME280;38656;54.260;20.822;2024-03-17T12:20:18;101103.41;;;5.12;100.00
52777;BME280;38656;54.260;20.822;2024-03-17T12:22:46;101086.78;;;6.86;100.00
52777;BME280;38656;54.260;20.822;2024-03-17T12:25:18;101096.09;;;6.76;100.00
52777;BME280;38656;54.260;20.822;2024-03-17T12:27:46;101096.63;;;6.49;100.00
52777;BME280;38656;54.260;20.822;2024-03-17T12:30:15;101090.66;;;5.23;100.00
52777;BME280;38656;54.260;20.822;2024-03-17T12:32:43;101097.81;;;4.82;100.00
52777;BME280;38656;54.260;20.822;2024-03-17T12:35:15;101099.06;;;5.30;100.00
52777;BME280;38656;54.260;20.822;2024-03-17T12:37:44;101100.53;;;5.90;100.00
52777;BME280;38656;54.260;20.822;2024-03-17T12:40:21;101090.41;;;4.91;100.00
52777;BME280;38656;54.260;20.822;2024-03-17T12:42:50;101094.94;;;4.88;100.00
52777;BME280;38656;54.260;20.822;2024-03-17T12:45:23;101103.50;;;5.28;100.00
52777;BME280;38656;54.260;20.822;2024-03-17T12:47:50;101101.53;;;4.57;100.00
52777;BME280;38656;54.260;20.822;2024-03-17T12:50:17;101101.06;;;4.87;100.00
52777;BME280;38656;54.260;20.822;2024-03-17T12:52:53;101103.56;;;5.09;100.00
52777;BME280;38656;54.260;20.822;2024-03-17T12:55:20;101097.91;;;5.36;100.00
52777;BME280;38656;54.260;20.822;2024-03-17T12:58:07;101100.16;;;5.43;100.00
52777;BME280;38656;54.260;20.822;2024-03-17T13:01:05;101094.75;;;6.35;100.00
52777;BME280;38656;54.260;20.822;2024-03-17T13:03:33;101095.88;;;5.42;100.00
52777;BME280;38656;54.260;20.822;2024-03-17T13:06:01;101095.34;;;4.97;100.00
52777;BME280;38656;54.260;20.822;2024-03-17T13:08:32;101118.19;;;4.35;100.00
52777;BME280;38656;54.260;20.822;2024-03-17T13:11:01;101111.94;;;4.38;100.00
52777;BME280;38656;54.260;20.822;2024-03-17T13:13:29;101108.69;;;5.83;100.00
52777;BME280;38656;54.260;20.822;2024-03-17T13:15:56;101105.88;;;6.57;100.00
52777;BME280;38656;54.260;20.822;2024-03-17T13:18:22;101115.94;;;5.42;100.00
52777;BME280;38656;54.260;20.822;2024-03-17T13:20:49;101112.94;;;6.72;100.00
52777;BME280;38656;54.260;20.822;2024-03-17T13:23:24;101107.16;;;6.32;100.00